Port Colborne, Canada
Current Conditions -  °F | °C
As of 4:53 AM on Saturday 25 Oct 2014 (Local Time) from KIAG Reporting Station
Overcast Overcast  
Wind Chill: 54°   Ceiling: 4100
Heat Index: 54°   Visibility: 8mi
Dew Point: 47°   Wind: 10mph
Humidity: 77%   Direction: 240°WSW
Pressure: 29.85"   Gusts: NA
Location:  42.89°N, 79.25°W
Report Text: KIAG 250853Z AUTO 24009KT 8SM OVC041 12/08 A2985 RMK AO2 SLP113 T01220083 58017
Loading
Personal Weather Stations






























Interactive Weather Map New forecast layout! Learn more

10-Day Weather Forecast

Advertisements
Track Severe Weather on mobile